sensor_id;sensor_type;location;lat;lon;timestamp;temperature;humidity
60234;DHT22;49514;43.538;-5.708;2023-06-22T00:02:25;21.10;99.90
60234;DHT22;49514;43.538;-5.708;2023-06-22T00:04:52;21.20;99.90
60234;DHT22;49514;43.538;-5.708;2023-06-22T00:07:19;21.10;99.90
60234;DHT22;49514;43.538;-5.708;2023-06-22T00:09:45;21.10;99.90
60234;DHT22;49514;43.538;-5.708;2023-06-22T00:12:12;21.10;99.90
60234;DHT22;49514;43.538;-5.708;2023-06-22T00:14:38;21.00;99.90
60234;DHT22;49514;43.538;-5.708;2023-06-22T00:17:05;21.10;99.90
60234;DHT22;49514;43.538;-5.708;2023-06-22T00:19:32;21.00;99.90
60234;DHT22;49514;43.538;-5.708;2023-06-22T00:22:02;21.00;99.90
60234;DHT22;49514;43.538;-5.708;2023-06-22T00:24:29;21.00;99.90
60234;DHT22;49514;43.538;-5.708;2023-06-22T00:26:56;21.00;99.90
60234;DHT22;49514;43.538;-5.708;2023-06-22T00:29:23;20.90;99.90
60234;DHT22;49514;43.538;-5.708;2023-06-22T00:31:50;20.90;99.90
60234;DHT22;49514;43.538;-5.708;2023-06-22T00:34:17;20.90;99.90
60234;DHT22;49514;43.538;-5.708;2023-06-22T00:36:44;20.90;99.90
60234;DHT22;49514;43.538;-5.708;2023-06-22T00:39:11;20.90;99.90
60234;DHT22;49514;43.538;-5.708;2023-06-22T00:41:38;20.90;99.90
60234;DHT22;49514;43.538;-5.708;2023-06-22T00:44:05;20.90;99.90
60234;DHT22;49514;43.538;-5.708;2023-06-22T00:46:33;20.90;99.90
60234;DHT22;49514;43.538;-5.708;2023-06-22T00:48:59;20.90;99.90
60234;DHT22;49514;43.538;-5.708;2023-06-22T00:51:28;20.90;99.90
60234;DHT22;49514;43.538;-5.708;2023-06-22T00:53:55;20.90;99.90
60234;DHT22;49514;43.538;-5.708;2023-06-22T00:56:23;20.90;99.90
60234;DHT22;49514;43.538;-5.708;2023-06-22T00:58:51;20.90;99.90
60234;DHT22;49514;43.538;-5.708;2023-06-22T01:01:19;20.80;99.90
60234;DHT22;49514;43.538;-5.708;2023-06-22T01:03:50;20.80;99.90
60234;DHT22;49514;43.538;-5.708;2023-06-22T01:06:25;20.80;99.90
60234;DHT22;49514;43.538;-5.708;2023-06-22T01:09:06;20.70;99.90
60234;DHT22;49514;43.538;-5.708;2023-06-22T01:11:44;20.70;99.90
60234;DHT22;49514;43.538;-5.708;2023-06-22T01:17:01;20.70;99.90
60234;DHT22;49514;43.538;-5.708;2023-06-22T01:19:39;20.70;99.90
60234;DHT22;49514;43.538;-5.708;2023-06-22T01:22:08;20.70;99.90
60234;DHT22;49514;43.538;-5.708;2023-06-22T01:24:48;20.70;99.90
60234;DHT22;49514;43.538;-5.708;2023-06-22T01:27:26;20.60;99.90
60234;DHT22;49514;43.538;-5.708;2023-06-22T01:29:59;20.60;99.90
60234;DHT22;49514;43.538;-5.708;2023-06-22T01:32:31;20.60;99.90
60234;DHT22;49514;43.538;-5.708;2023-06-22T01:35:00;20.60;99.90
60234;DHT22;49514;43.538;-5.708;2023-06-22T01:37:31;20.70;99.90
60234;DHT22;49514;43.538;-5.708;2023-06-22T01:39:59;20.70;99.90
60234;DHT22;49514;43.538;-5.708;2023-06-22T01:42:26;20.70;99.90
60234;DHT22;49514;43.538;-5.708;2023-06-22T01:44:53;20.70;99.90
60234;DHT22;49514;43.538;-5.708;2023-06-22T01:47:24;20.70;99.90
60234;DHT22;49514;43.538;-5.708;2023-06-22T01:49:51;20.80;99.90
60234;DHT22;49514;43.538;-5.708;2023-06-22T01:52:20;20.80;99.90
60234;DHT22;49514;43.538;-5.708;2023-06-22T01:54:48;20.70;99.90
60234;DHT22;49514;43.538;-5.708;2023-06-22T01:57:15;20.70;99.90
60234;DHT22;49514;43.538;-5.708;2023-06-22T01:59:45;20.70;99.90
60234;DHT22;49514;43.538;-5.708;2023-06-22T02:02:16;20.70;99.90
60234;DHT22;49514;43.538;-5.708;2023-06-22T02:04:47;20.70;99.90
60234;DHT22;49514;43.538;-5.708;2023-06-22T02:07:17;20.70;99.90
60234;DHT22;49514;43.538;-5.708;2023-06-22T02:09:46;20.70;99.90
60234;DHT22;49514;43.538;-5.708;2023-06-22T02:12:18;20.70;99.90
60234;DHT22;49514;43.538;-5.708;2023-06-22T02:14:48;20.70;99.90
60234;DHT22;49514;43.538;-5.708;2023-06-22T02:17:17;20.70;99.90
60234;DHT22;49514;43.538;-5.708;2023-06-22T02:19:44;20.70;99.90
60234;DHT22;49514;43.538;-5.708;2023-06-22T02:22:10;20.60;99.90
60234;DHT22;49514;43.538;-5.708;2023-06-22T02:24:39;20.60;99.90
60234;DHT22;49514;43.538;-5.708;2023-06-22T02:27:05;20.60;99.90
60234;DHT22;49514;43.538;-5.708;2023-06-22T02:29:33;20.60;99.90
60234;DHT22;49514;43.538;-5.708;2023-06-22T02:32:00;20.60;99.90
60234;DHT22;49514;43.538;-5.708;2023-06-22T02:34:26;20.60;99.90
60234;DHT22;49514;43.538;-5.708;2023-06-22T02:36:53;20.60;99.90
60234;DHT22;49514;43.538;-5.708;2023-06-22T02:39:21;20.50;99.90
60234;DHT22;49514;43.538;-5.708;2023-06-22T02:41:53;20.50;99.90
60234;DHT22;49514;43.538;-5.708;2023-06-22T02:44:22;20.60;99.90
60234;DHT22;49514;43.538;-5.708;2023-06-22T02:46:49;20.60;99.90
60234;DHT22;49514;43.538;-5.708;2023-06-22T02:49:16;20.60;99.90
60234;DHT22;49514;43.538;-5.708;2023-06-22T02:51:48;20.60;99.90
60234;DHT22;49514;43.538;-5.708;2023-06-22T02:54:18;20.60;99.90
60234;DHT22;49514;43.538;-5.708;2023-06-22T02:56:47;20.60;99.90
60234;DHT22;49514;43.538;-5.708;2023-06-22T02:59:14;20.60;99.90
60234;DHT22;49514;43.538;-5.708;2023-06-22T03:01:42;20.60;99.90
60234;DHT22;49514;43.538;-5.708;2023-06-22T03:04:22;20.50;99.90
60234;DHT22;49514;43.538;-5.708;2023-06-22T03:06:49;20.50;99.90
60234;DHT22;49514;43.538;-5.708;2023-06-22T03:09:17;20.40;99.90
60234;DHT22;49514;43.538;-5.708;2023-06-22T03:11:44;20.40;99.90
60234;DHT22;49514;43.538;-5.708;2023-06-22T03:14:12;20.30;99.90
60234;DHT22;49514;43.538;-5.708;2023-06-22T03:16:38;20.40;99.90
60234;DHT22;49514;43.538;-5.708;2023-06-22T03:19:07;20.30;99.90
60234;DHT22;49514;43.538;-5.708;2023-06-22T03:21:33;20.30;99.90
60234;DHT22;49514;43.538;-5.708;2023-06-22T03:24:00;20.30;99.90
60234;DHT22;49514;43.538;-5.708;2023-06-22T03:26:27;20.30;99.90
60234;DHT22;49514;43.538;-5.708;2023-06-22T03:28:54;20.30;99.90
60234;DHT22;49514;43.538;-5.708;2023-06-22T03:31:22;20.30;99.90
60234;DHT22;49514;43.538;-5.708;2023-06-22T03:33:50;20.20;99.90
60234;DHT22;49514;43.538;-5.708;2023-06-22T03:36:17;20.20;99.90
60234;DHT22;49514;43.538;-5.708;2023-06-22T03:38:48;20.20;99.90
60234;DHT22;49514;43.538;-5.708;2023-06-22T03:41:15;20.10;99.90
60234;DHT22;49514;43.538;-5.708;2023-06-22T03:43:42;20.10;99.90
60234;DHT22;49514;43.538;-5.708;2023-06-22T03:46:09;20.10;99.90
60234;DHT22;49514;43.538;-5.708;2023-06-22T03:48:35;20.10;99.90
60234;DHT22;49514;43.538;-5.708;2023-06-22T03:51:02;20.00;99.90
60234;DHT22;49514;43.538;-5.708;2023-06-22T03:53:29;20.00;99.90
60234;DHT22;49514;43.538;-5.708;2023-06-22T03:55:56;20.00;99.90
60234;DHT22;49514;43.538;-5.708;2023-06-22T03:58:23;20.00;99.90
60234;DHT22;49514;43.538;-5.708;2023-06-22T04:00:51;20.00;99.90
60234;DHT22;49514;43.538;-5.708;2023-06-22T04:03:18;20.00;99.90
60234;DHT22;49514;43.538;-5.708;2023-06-22T04:05:45;19.90;99.90
60234;DHT22;49514;43.538;-5.708;2023-06-22T04:08:13;19.90;99.90
60234;DHT22;49514;43.538;-5.708;2023-06-22T04:10:40;19.80;99.90
60234;DHT22;49514;43.538;-5.708;2023-06-22T04:13:07;19.90;99.90
60234;DHT22;49514;43.538;-5.708;2023-06-22T04:15:33;19.90;99.90
60234;DHT22;49514;43.538;-5.708;2023-06-22T04:18:00;19.90;99.90
60234;DHT22;49514;43.538;-5.708;2023-06-22T04:20:27;19.90;99.90
60234;DHT22;49514;43.538;-5.708;2023-06-22T04:22:54;19.90;99.90
60234;DHT22;49514;43.538;-5.708;2023-06-22T04:25:21;19.90;99.90
60234;DHT22;49514;43.538;-5.708;2023-06-22T04:27:48;19.80;99.90
60234;DHT22;49514;43.538;-5.708;2023-06-22T04:30:15;19.80;99.90
60234;DHT22;49514;43.538;-5.708;2023-06-22T04:32:43;19.80;99.90
60234;DHT22;49514;43.538;-5.708;2023-06-22T04:35:10;19.80;99.90
60234;DHT22;49514;43.538;-5.708;2023-06-22T04:37:38;19.80;99.90
60234;DHT22;49514;43.538;-5.708;2023-06-22T04:40:06;19.70;99.90
60234;DHT22;49514;43.538;-5.708;2023-06-22T04:42:34;19.70;99.90
60234;DHT22;49514;43.538;-5.708;2023-06-22T04:45:02;19.70;99.90
60234;DHT22;49514;43.538;-5.708;2023-06-22T04:47:28;19.70;99.90
60234;DHT22;49514;43.538;-5.708;2023-06-22T04:49:55;19.70;99.90
60234;DHT22;49514;43.538;-5.708;2023-06-22T04:52:21;19.70;99.90
60234;DHT22;49514;43.538;-5.708;2023-06-22T04:54:48;19.70;99.90
60234;DHT22;49514;43.538;-5.708;2023-06-22T04:57:16;19.60;99.90
60234;DHT22;49514;43.538;-5.708;2023-06-22T04:59:43;19.60;99.90
60234;DHT22;49514;43.538;-5.708;2023-06-22T05:02:10;19.70;99.90
60234;DHT22;49514;43.538;-5.708;2023-06-22T05:04:37;19.70;99.90
60234;DHT22;49514;43.538;-5.708;2023-06-22T05:07:07;19.60;99.90
60234;DHT22;49514;43.538;-5.708;2023-06-22T05:09:33;19.60;99.90
60234;DHT22;49514;43.538;-5.708;2023-06-22T05:12:01;19.60;99.90
60234;DHT22;49514;43.538;-5.708;2023-06-22T05:14:31;19.60;99.90
60234;DHT22;49514;43.538;-5.708;2023-06-22T05:16:58;19.60;99.90
60234;DHT22;49514;43.538;-5.708;2023-06-22T05:19:25;19.60;99.90
60234;DHT22;49514;43.538;-5.708;2023-06-22T05:21:57;19.60;99.90
60234;DHT22;49514;43.538;-5.708;2023-06-22T05:24:24;19.60;99.90
60234;DHT22;49514;43.538;-5.708;2023-06-22T05:26:50;19.70;99.90
60234;DHT22;49514;43.538;-5.708;2023-06-22T05:29:17;19.70;99.90
60234;DHT22;49514;43.538;-5.708;2023-06-22T05:31:43;19.80;99.90
60234;DHT22;49514;43.538;-5.708;2023-06-22T05:34:10;19.80;99.90
60234;DHT22;49514;43.538;-5.708;2023-06-22T05:36:37;19.80;99.90
60234;DHT22;49514;43.538;-5.708;2023-06-22T05:39:11;19.80;99.90
60234;DHT22;49514;43.538;-5.708;2023-06-22T05:41:40;19.90;99.90
60234;DHT22;49514;43.538;-5.708;2023-06-22T05:44:06;19.90;99.90
60234;DHT22;49514;43.538;-5.708;2023-06-22T05:46:33;19.90;99.90
60234;DHT22;49514;43.538;-5.708;2023-06-22T05:49:00;20.00;99.90
60234;DHT22;49514;43.538;-5.708;2023-06-22T05:51:27;20.00;99.90
60234;DHT22;49514;43.538;-5.708;2023-06-22T05:53:53;20.10;99.90
60234;DHT22;49514;43.538;-5.708;2023-06-22T05:56:20;20.10;99.90
60234;DHT22;49514;43.538;-5.708;2023-06-22T05:58:46;20.20;99.90
60234;DHT22;49514;43.538;-5.708;2023-06-22T06:01:13;20.20;99.90
60234;DHT22;49514;43.538;-5.708;2023-06-22T06:03:41;20.30;99.90
60234;DHT22;49514;43.538;-5.708;2023-06-22T06:06:08;20.30;99.90
60234;DHT22;49514;43.538;-5.708;2023-06-22T06:08:40;20.40;99.90
60234;DHT22;49514;43.538;-5.708;2023-06-22T06:11:07;20.40;99.90
60234;DHT22;49514;43.538;-5.708;2023-06-22T06:13:33;20.50;99.90
60234;DHT22;49514;43.538;-5.708;2023-06-22T06:16:00;20.40;99.90
60234;DHT22;49514;43.538;-5.708;2023-06-22T06:18:27;20.50;99.90
60234;DHT22;49514;43.538;-5.708;2023-06-22T06:20:54;20.50;99.90
60234;DHT22;49514;43.538;-5.708;2023-06-22T06:23:21;20.50;99.90
60234;DHT22;49514;43.538;-5.708;2023-06-22T06:25:47;20.70;99.90
60234;DHT22;49514;43.538;-5.708;2023-06-22T06:28:14;20.70;99.90
60234;DHT22;49514;43.538;-5.708;2023-06-22T06:30:40;20.80;99.90
60234;DHT22;49514;43.538;-5.708;2023-06-22T06:33:07;20.90;99.90
60234;DHT22;49514;43.538;-5.708;2023-06-22T06:35:35;21.00;99.90
60234;DHT22;49514;43.538;-5.708;2023-06-22T06:38:02;21.10;99.90
60234;DHT22;49514;43.538;-5.708;2023-06-22T06:40:28;21.10;99.90
60234;DHT22;49514;43.538;-5.708;2023-06-22T06:42:55;21.20;99.90
60234;DHT22;49514;43.538;-5.708;2023-06-22T06:45:23;21.30;99.90
60234;DHT22;49514;43.538;-5.708;2023-06-22T06:47:51;21.40;99.90
60234;DHT22;49514;43.538;-5.708;2023-06-22T06:50:18;21.50;99.90
60234;DHT22;49514;43.538;-5.708;2023-06-22T06:52:45;21.60;99.90
60234;DHT22;49514;43.538;-5.708;2023-06-22T06:55:12;21.70;99.90
60234;DHT22;49514;43.538;-5.708;2023-06-22T06:57:39;21.80;99.90
60234;DHT22;49514;43.538;-5.708;2023-06-22T07:00:07;21.80;99.90
60234;DHT22;49514;43.538;-5.708;2023-06-22T07:02:42;21.90;99.90
60234;DHT22;49514;43.538;-5.708;2023-06-22T07:05:10;21.90;99.90
60234;DHT22;49514;43.538;-5.708;2023-06-22T07:07:37;22.00;99.90
60234;DHT22;49514;43.538;-5.708;2023-06-22T07:10:05;22.10;99.90
60234;DHT22;49514;43.538;-5.708;2023-06-22T07:12:32;22.20;99.90
60234;DHT22;49514;43.538;-5.708;2023-06-22T07:15:07;22.30;99.90
60234;DHT22;49514;43.538;-5.708;2023-06-22T07:17:38;22.40;99.90
60234;DHT22;49514;43.538;-5.708;2023-06-22T07:20:07;22.50;99.90
60234;DHT22;49514;43.538;-5.708;2023-06-22T07:22:39;22.50;99.90
60234;DHT22;49514;43.538;-5.708;2023-06-22T07:25:07;22.60;99.90
60234;DHT22;49514;43.538;-5.708;2023-06-22T07:27:45;22.70;99.90
60234;DHT22;49514;43.538;-5.708;2023-06-22T07:30:12;22.80;99.90
60234;DHT22;49514;43.538;-5.708;2023-06-22T07:32:40;22.80;99.90
60234;DHT22;49514;43.538;-5.708;2023-06-22T07:35:06;22.80;99.90
60234;DHT22;49514;43.538;-5.708;2023-06-22T07:37:33;22.80;99.90
60234;DHT22;49514;43.538;-5.708;2023-06-22T07:40:01;22.80;99.90
60234;DHT22;49514;43.538;-5.708;2023-06-22T07:42:30;22.90;99.90
60234;DHT22;49514;43.538;-5.708;2023-06-22T07:44:59;22.90;99.90
60234;DHT22;49514;43.538;-5.708;2023-06-22T07:47:26;23.00;99.90
60234;DHT22;49514;43.538;-5.708;2023-06-22T07:49:59;23.10;99.90
60234;DHT22;49514;43.538;-5.708;2023-06-22T07:52:28;23.30;99.90
60234;DHT22;49514;43.538;-5.708;2023-06-22T07:54:55;23.60;99.90
60234;DHT22;49514;43.538;-5.708;2023-06-22T07:57:22;23.70;99.90
60234;DHT22;49514;43.538;-5.708;2023-06-22T07:59:48;23.80;99.90
60234;DHT22;49514;43.538;-5.708;2023-06-22T08:02:15;24.00;99.90
60234;DHT22;49514;43.538;-5.708;2023-06-22T08:04:42;24.00;99.90
60234;DHT22;49514;43.538;-5.708;2023-06-22T08:07:08;24.00;99.90
60234;DHT22;49514;43.538;-5.708;2023-06-22T08:09:35;24.00;99.90
60234;DHT22;49514;43.538;-5.708;2023-06-22T08:12:03;23.90;99.90
60234;DHT22;49514;43.538;-5.708;2023-06-22T08:14:30;23.80;99.90
60234;DHT22;49514;43.538;-5.708;2023-06-22T08:16:57;23.70;99.90
60234;DHT22;49514;43.538;-5.708;2023-06-22T08:19:23;23.60;99.90
60234;DHT22;49514;43.538;-5.708;2023-06-22T08:21:50;23.50;99.90
60234;DHT22;49514;43.538;-5.708;2023-06-22T08:24:17;23.30;99.90
60234;DHT22;49514;43.538;-5.708;2023-06-22T08:26:43;23.20;99.90
60234;DHT22;49514;43.538;-5.708;2023-06-22T08:29:10;23.10;99.90
60234;DHT22;49514;43.538;-5.708;2023-06-22T08:31:37;23.10;99.90
60234;DHT22;49514;43.538;-5.708;2023-06-22T08:34:03;23.00;99.90
60234;DHT22;49514;43.538;-5.708;2023-06-22T08:36:30;23.10;99.90
60234;DHT22;49514;43.538;-5.708;2023-06-22T08:38:59;23.10;99.90
60234;DHT22;49514;43.538;-5.708;2023-06-22T08:41:27;23.20;99.90
60234;DHT22;49514;43.538;-5.708;2023-06-22T08:43:54;23.30;99.90
60234;DHT22;49514;43.538;-5.708;2023-06-22T08:46:21;23.30;99.90
60234;DHT22;49514;43.538;-5.708;2023-06-22T08:48:50;23.40;99.90
60234;DHT22;49514;43.538;-5.708;2023-06-22T08:51:17;23.40;99.90
60234;DHT22;49514;43.538;-5.708;2023-06-22T08:53:43;23.40;99.90
60234;DHT22;49514;43.538;-5.708;2023-06-22T08:56:11;23.40;99.90
60234;DHT22;49514;43.538;-5.708;2023-06-22T08:58:38;23.30;99.90
60234;DHT22;49514;43.538;-5.708;2023-06-22T09:01:04;23.30;99.90
60234;DHT22;49514;43.538;-5.708;2023-06-22T09:03:31;23.30;99.90
60234;DHT22;49514;43.538;-5.708;2023-06-22T09:05:59;23.20;99.90
60234;DHT22;49514;43.538;-5.708;2023-06-22T09:08:26;23.20;99.90
60234;DHT22;49514;43.538;-5.708;2023-06-22T09:10:53;23.10;99.90
60234;DHT22;49514;43.538;-5.708;2023-06-22T09:13:20;23.10;99.90
60234;DHT22;49514;43.538;-5.708;2023-06-22T09:15:48;23.10;99.90
60234;DHT22;49514;43.538;-5.708;2023-06-22T09:18:15;23.10;99.90
60234;DHT22;49514;43.538;-5.708;2023-06-22T09:20:41;23.10;99.90
60234;DHT22;49514;43.538;-5.708;2023-06-22T09:23:08;23.20;99.90
60234;DHT22;49514;43.538;-5.708;2023-06-22T09:25:35;23.30;99.90
60234;DHT22;49514;43.538;-5.708;2023-06-22T09:28:02;23.30;99.90
60234;DHT22;49514;43.538;-5.708;2023-06-22T09:30:28;23.20;99.90
60234;DHT22;49514;43.538;-5.708;2023-06-22T09:32:55;23.30;99.90
60234;DHT22;49514;43.538;-5.708;2023-06-22T09:35:21;23.30;99.90
60234;DHT22;49514;43.538;-5.708;2023-06-22T09:37:48;23.40;99.90
60234;DHT22;49514;43.538;-5.708;2023-06-22T09:40:15;23.30;99.90
60234;DHT22;49514;43.538;-5.708;2023-06-22T09:42:43;23.30;99.90
60234;DHT22;49514;43.538;-5.708;2023-06-22T09:45:10;23.30;99.90
60234;DHT22;49514;43.538;-5.708;2023-06-22T09:47:36;23.30;99.90
60234;DHT22;49514;43.538;-5.708;2023-06-22T09:50:04;23.20;99.90
60234;DHT22;49514;43.538;-5.708;2023-06-22T09:52:31;23.20;99.90
60234;DHT22;49514;43.538;-5.708;2023-06-22T09:54:58;23.20;99.90
60234;DHT22;49514;43.538;-5.708;2023-06-22T09:57:24;23.20;99.90
60234;DHT22;49514;43.538;-5.708;2023-06-22T09:59:51;23.10;99.90
60234;DHT22;49514;43.538;-5.708;2023-06-22T10:02:17;23.10;99.90
60234;DHT22;49514;43.538;-5.708;2023-06-22T10:04:44;23.10;99.90
60234;DHT22;49514;43.538;-5.708;2023-06-22T10:07:11;23.10;99.90
60234;DHT22;49514;43.538;-5.708;2023-06-22T10:09:37;23.10;99.90
60234;DHT22;49514;43.538;-5.708;2023-06-22T10:12:04;23.10;99.90
60234;DHT22;49514;43.538;-5.708;2023-06-22T10:14:31;23.10;99.90
60234;DHT22;49514;43.538;-5.708;2023-06-22T10:16:58;23.10;99.90
60234;DHT22;49514;43.538;-5.708;2023-06-22T10:19:24;23.10;99.90
60234;DHT22;49514;43.538;-5.708;2023-06-22T10:21:51;23.10;99.90
60234;DHT22;49514;43.538;-5.708;2023-06-22T10:24:18;23.10;99.90
60234;DHT22;49514;43.538;-5.708;2023-06-22T10:26:45;23.00;99.90
60234;DHT22;49514;43.538;-5.708;2023-06-22T10:29:11;23.10;99.90
60234;DHT22;49514;43.538;-5.708;2023-06-22T10:31:38;23.10;99.90
60234;DHT22;49514;43.538;-5.708;2023-06-22T10:34:04;23.20;99.90
60234;DHT22;49514;43.538;-5.708;2023-06-22T10:36:31;23.20;99.90
60234;DHT22;49514;43.538;-5.708;2023-06-22T10:38:58;23.20;99.90
60234;DHT22;49514;43.538;-5.708;2023-06-22T10:41:25;23.30;99.90
60234;DHT22;49514;43.538;-5.708;2023-06-22T10:43:52;23.30;99.90
60234;DHT22;49514;43.538;-5.708;2023-06-22T10:46:19;23.40;99.90
60234;DHT22;49514;43.538;-5.708;2023-06-22T10:48:45;23.30;99.90
60234;DHT22;49514;43.538;-5.708;2023-06-22T10:51:12;23.40;99.90
60234;DHT22;49514;43.538;-5.708;2023-06-22T10:53:39;23.30;99.90
60234;DHT22;49514;43.538;-5.708;2023-06-22T10:56:05;23.40;99.90
60234;DHT22;49514;43.538;-5.708;2023-06-22T10:58:32;23.40;99.90
60234;DHT22;49514;43.538;-5.708;2023-06-22T11:00:59;23.40;99.90
60234;DHT22;49514;43.538;-5.708;2023-06-22T11:03:26;23.30;99.90
60234;DHT22;49514;43.538;-5.708;2023-06-22T11:05:52;23.40;99.90
60234;DHT22;49514;43.538;-5.708;2023-06-22T11:08:19;23.40;99.90
60234;DHT22;49514;43.538;-5.708;2023-06-22T11:10:47;23.40;99.90
60234;DHT22;49514;43.538;-5.708;2023-06-22T11:13:14;23.40;99.90
60234;DHT22;49514;43.538;-5.708;2023-06-22T11:15:41;23.30;99.90
60234;DHT22;49514;43.538;-5.708;2023-06-22T11:18:07;23.30;99.90
60234;DHT22;49514;43.538;-5.708;2023-06-22T11:20:34;23.30;99.90
60234;DHT22;49514;43.538;-5.708;2023-06-22T11:23:08;23.30;99.90
60234;DHT22;49514;43.538;-5.708;2023-06-22T11:25:34;23.40;99.90
60234;DHT22;49514;43.538;-5.708;2023-06-22T11:28:02;23.40;99.90
60234;DHT22;49514;43.538;-5.708;2023-06-22T11:30:29;23.50;99.90
60234;DHT22;49514;43.538;-5.708;2023-06-22T11:32:58;23.50;99.90
60234;DHT22;49514;43.538;-5.708;2023-06-22T11:35:26;23.60;99.90
60234;DHT22;49514;43.538;-5.708;2023-06-22T11:37:52;23.60;99.90
60234;DHT22;49514;43.538;-5.708;2023-06-22T11:40:19;23.70;99.90
60234;DHT22;49514;43.538;-5.708;2023-06-22T11:42:46;23.70;99.90
60234;DHT22;49514;43.538;-5.708;2023-06-22T11:45:12;23.70;99.90
60234;DHT22;49514;43.538;-5.708;2023-06-22T11:47:39;23.80;99.90
60234;DHT22;49514;43.538;-5.708;2023-06-22T11:50:07;23.70;99.90
60234;DHT22;49514;43.538;-5.708;2023-06-22T11:52:34;23.80;99.90
60234;DHT22;49514;43.538;-5.708;2023-06-22T11:55:03;23.80;99.90
60234;DHT22;49514;43.538;-5.708;2023-06-22T11:57:34;23.90;99.90
60234;DHT22;49514;43.538;-5.708;2023-06-22T12:00:01;24.00;99.90
60234;DHT22;49514;43.538;-5.708;2023-06-22T12:02:33;24.00;99.90
60234;DHT22;49514;43.538;-5.708;2023-06-22T12:04:59;24.00;99.90
60234;DHT22;49514;43.538;-5.708;2023-06-22T12:07:26;24.00;99.90
60234;DHT22;49514;43.538;-5.708;2023-06-22T12:09:53;24.20;99.90
60234;DHT22;49514;43.538;-5.708;2023-06-22T12:12:19;24.30;99.90
60234;DHT22;49514;43.538;-5.708;2023-06-22T12:14:46;24.30;99.90
60234;DHT22;49514;43.538;-5.708;2023-06-22T12:17:13;24.40;99.90
60234;DHT22;49514;43.538;-5.708;2023-06-22T12:19:39;24.50;99.90
60234;DHT22;49514;43.538;-5.708;2023-06-22T12:22:06;24.60;99.90
60234;DHT22;49514;43.538;-5.708;2023-06-22T12:24:33;24.70;99.90
60234;DHT22;49514;43.538;-5.708;2023-06-22T12:26:59;24.80;99.90
60234;DHT22;49514;43.538;-5.708;2023-06-22T12:29:26;24.90;99.90
60234;DHT22;49514;43.538;-5.708;2023-06-22T12:31:52;24.90;99.90
60234;DHT22;49514;43.538;-5.708;2023-06-22T12:34:19;25.00;99.90
60234;DHT22;49514;43.538;-5.708;2023-06-22T12:36:46;25.10;99.90
60234;DHT22;49514;43.538;-5.708;2023-06-22T12:39:14;25.20;99.90
60234;DHT22;49514;43.538;-5.708;2023-06-22T12:41:41;25.20;99.90
60234;DHT22;49514;43.538;-5.708;2023-06-22T12:44:08;25.20;99.90
60234;DHT22;49514;43.538;-5.708;2023-06-22T12:46:34;25.30;99.90
60234;DHT22;49514;43.538;-5.708;2023-06-22T12:49:04;25.40;99.90
60234;DHT22;49514;43.538;-5.708;2023-06-22T12:51:31;25.40;99.90
60234;DHT22;49514;43.538;-5.708;2023-06-22T12:53:57;25.50;99.90
60234;DHT22;49514;43.538;-5.708;2023-06-22T12:56:24;25.60;99.90
60234;DHT22;49514;43.538;-5.708;2023-06-22T12:58:51;25.80;99.90
60234;DHT22;49514;43.538;-5.708;2023-06-22T13:01:18;25.70;99.90
60234;DHT22;49514;43.538;-5.708;2023-06-22T13:03:44;25.90;99.90
60234;DHT22;49514;43.538;-5.708;2023-06-22T13:06:11;26.20;99.90
60234;DHT22;49514;43.538;-5.708;2023-06-22T13:08:38;26.80;99.90
60234;DHT22;49514;43.538;-5.708;2023-06-22T13:11:04;27.30;99.90
60234;DHT22;49514;43.538;-5.708;2023-06-22T13:13:31;28.10;99.90
60234;DHT22;49514;43.538;-5.708;2023-06-22T13:16:01;29.60;99.90
60234;DHT22;49514;43.538;-5.708;2023-06-22T13:18:27;31.00;99.90
60234;DHT22;49514;43.538;-5.708;2023-06-22T13:20:54;32.40;99.90
60234;DHT22;49514;43.538;-5.708;2023-06-22T13:23:21;34.20;96.80
60234;DHT22;49514;43.538;-5.708;2023-06-22T13:25:49;35.30;94.30
60234;DHT22;49514;43.538;-5.708;2023-06-22T13:28:15;37.10;92.40
60234;DHT22;49514;43.538;-5.708;2023-06-22T13:30:42;39.50;83.80
60234;DHT22;49514;43.538;-5.708;2023-06-22T13:33:12;40.00;84.10
60234;DHT22;49514;43.538;-5.708;2023-06-22T13:35:38;41.50;81.00
60234;DHT22;49514;43.538;-5.708;2023-06-22T13:40:32;45.40;71.00
60234;DHT22;49514;43.538;-5.708;2023-06-22T13:42:59;45.70;66.70
60234;DHT22;49514;43.538;-5.708;2023-06-22T13:45:27;46.50;66.00
60234;DHT22;49514;43.538;-5.708;2023-06-22T13:47:53;47.30;64.50
60234;DHT22;49514;43.538;-5.708;2023-06-22T13:50:20;47.70;63.80
60234;DHT22;49514;43.538;-5.708;2023-06-22T13:52:47;48.00;60.00
60234;DHT22;49514;43.538;-5.708;2023-06-22T13:55:14;47.50;60.00
60234;DHT22;49514;43.538;-5.708;2023-06-22T13:57:41;46.40;58.30
60234;DHT22;49514;43.538;-5.708;2023-06-22T14:00:08;46.90;58.60
60234;DHT22;49514;43.538;-5.708;2023-06-22T14:02:41;46.80;58.80
60234;DHT22;49514;43.538;-5.708;2023-06-22T14:05:08;47.60;59.40
60234;DHT22;49514;43.538;-5.708;2023-06-22T14:07:35;48.10;57.20
60234;DHT22;49514;43.538;-5.708;2023-06-22T14:10:02;48.40;56.70
60234;DHT22;49514;43.538;-5.708;2023-06-22T14:12:29;48.60;57.10
60234;DHT22;49514;43.538;-5.708;2023-06-22T14:14:56;49.10;57.30
60234;DHT22;49514;43.538;-5.708;2023-06-22T14:17:23;48.60;56.00
60234;DHT22;49514;43.538;-5.708;2023-06-22T14:19:52;48.10;56.50
60234;DHT22;49514;43.538;-5.708;2023-06-22T14:22:20;47.90;55.30
60234;DHT22;49514;43.538;-5.708;2023-06-22T14:24:50;48.60;56.00
60234;DHT22;49514;43.538;-5.708;2023-06-22T14:27:17;49.40;54.60
60234;DHT22;49514;43.538;-5.708;2023-06-22T14:29:43;49.80;53.10
60234;DHT22;49514;43.538;-5.708;2023-06-22T14:32:10;49.20;53.90
60234;DHT22;49514;43.538;-5.708;2023-06-22T14:34:37;49.40;53.50
60234;DHT22;49514;43.538;-5.708;2023-06-22T14:37:06;49.40;53.60
60234;DHT22;49514;43.538;-5.708;2023-06-22T14:39:33;49.00;53.60
60234;DHT22;49514;43.538;-5.708;2023-06-22T14:44:28;46.70;53.90
60234;DHT22;49514;43.538;-5.708;2023-06-22T14:46:55;46.20;53.30
60234;DHT22;49514;43.538;-5.708;2023-06-22T14:49:24;46.30;54.30
60234;DHT22;49514;43.538;-5.708;2023-06-22T14:51:50;46.30;54.10
60234;DHT22;49514;43.538;-5.708;2023-06-22T14:54:17;46.30;54.70
60234;DHT22;49514;43.538;-5.708;2023-06-22T14:56:43;46.70;52.50
60234;DHT22;49514;43.538;-5.708;2023-06-22T14:59:10;46.40;52.90
60234;DHT22;49514;43.538;-5.708;2023-06-22T15:01:36;44.90;54.10
60234;DHT22;49514;43.538;-5.708;2023-06-22T15:04:03;45.40;54.00
60234;DHT22;49514;43.538;-5.708;2023-06-22T15:06:29;46.80;54.50
60234;DHT22;49514;43.538;-5.708;2023-06-22T15:08:55;47.50;52.10
60234;DHT22;49514;43.538;-5.708;2023-06-22T15:11:22;47.20;53.30
60234;DHT22;49514;43.538;-5.708;2023-06-22T15:13:48;46.70;53.00
60234;DHT22;49514;43.538;-5.708;2023-06-22T15:16:15;45.60;53.60
60234;DHT22;49514;43.538;-5.708;2023-06-22T15:18:41;45.80;54.00
60234;DHT22;49514;43.538;-5.708;2023-06-22T15:21:08;45.00;54.40
60234;DHT22;49514;43.538;-5.708;2023-06-22T15:23:34;45.50;54.70
60234;DHT22;49514;43.538;-5.708;2023-06-22T15:26:02;45.50;54.40